VLG4JK LEAL-LEXJ
Flight info
| Callsign | VLG4JK |
|---|---|
| Flight time | 1h 7m |
| Altitude | 34000 |
| Route | ASTRO L150 RBO N867 BLV |
| Aircraft | A320/M-SDE3FGHIRWY/LB1 |
Departure
| Time | 2026-05-07 12:11 |
|---|---|
| Airport | Alicante-Elche Miguel Hernández Airport (LEAL) |
Arrival
| Time | 2026-05-07 13:18 |
|---|---|
| Airport | Seve Ballesteros-Santander Airport (LEXJ) |
| Time | Latitude | Longitude | Altitude | Speed | Heading |
|---|---|---|---|---|---|
| 2026-05-07 11:46 | 38.28610 | -0.55039 | 89 ft | 0 kts | 280° |
| 2026-05-07 12:00 | 38.28607 | -0.55014 | 87 ft | 4 kts | 276° |
| 2026-05-07 12:01 | 38.28606 | -0.54992 | 87 ft | 4 kts | 268° |
| 2026-05-07 12:01 | 38.28610 | -0.54960 | 88 ft | 4 kts | 237° |
| 2026-05-07 12:01 | 38.28623 | -0.54945 | 92 ft | 0 kts | 190° |
| 2026-05-07 12:04 | 38.28616 | -0.54947 | 92 ft | 4 kts | 190° |
| 2026-05-07 12:04 | 38.28576 | -0.54956 | 87 ft | 10 kts | 190° |
| 2026-05-07 12:04 | 38.28477 | -0.54978 | 89 ft | 19 kts | 190° |
| 2026-05-07 12:04 | 38.28417 | -0.55043 | 89 ft | 11 kts | 276° |
| 2026-05-07 12:05 | 38.28405 | -0.55127 | 89 ft | 9 kts | 232° |
| 2026-05-07 12:05 | 38.28359 | -0.55205 | 88 ft | 14 kts | 234° |
| 2026-05-07 12:05 | 38.28325 | -0.55304 | 91 ft | 12 kts | 267° |
| 2026-05-07 12:05 | 38.28341 | -0.55433 | 93 ft | 17 kts | 280° |
| 2026-05-07 12:06 | 38.28365 | -0.55604 | 99 ft | 22 kts | 281° |
| 2026-05-07 12:06 | 38.28396 | -0.55819 | 103 ft | 27 kts | 280° |
| 2026-05-07 12:06 | 38.28428 | -0.56037 | 107 ft | 23 kts | 281° |
| 2026-05-07 12:06 | 38.28460 | -0.56229 | 108 ft | 21 kts | 282° |
| 2026-05-07 12:07 | 38.28476 | -0.56398 | 115 ft | 18 kts | 278° |
| 2026-05-07 12:07 | 38.28496 | -0.56558 | 118 ft | 19 kts | 278° |
| 2026-05-07 12:07 | 38.28518 | -0.56728 | 121 ft | 20 kts | 282° |
| 2026-05-07 12:07 | 38.28545 | -0.56900 | 129 ft | 19 kts | 281° |
| 2026-05-07 12:08 | 38.28568 | -0.57064 | 139 ft | 18 kts | 280° |
| 2026-05-07 12:08 | 38.28588 | -0.57201 | 145 ft | 13 kts | 280° |
| 2026-05-07 12:08 | 38.28594 | -0.57240 | 147 ft | 12 kts | 280° |
| 2026-05-07 12:09 | 38.28610 | -0.57347 | 151 ft | 14 kts | 281° |
| 2026-05-07 12:09 | 38.28589 | -0.57422 | 153 ft | 7 kts | 202° |
| 2026-05-07 12:10 | 38.28520 | -0.57434 | 155 ft | 13 kts | 190° |
| 2026-05-07 12:10 | 38.28446 | -0.57450 | 155 ft | 5 kts | 176° |
| 2026-05-07 12:10 | 38.28438 | -0.57407 | 153 ft | 8 kts | 92° |
| 2026-05-07 12:10 | 38.28411 | -0.57207 | 144 ft | 53 kts | 100° |
| 2026-05-07 12:11 | 38.28304 | -0.56436 | 115 ft | 121 kts | 100° |
| 2026-05-07 12:11 | 38.28133 | -0.55183 | 279 ft | 153 kts | 100° |
| 2026-05-07 12:11 | 38.27932 | -0.53876 | 1048 ft | 150 kts | 101° |
| 2026-05-07 12:11 | 38.27713 | -0.52542 | 1585 ft | 164 kts | 99° |
| 2026-05-07 12:12 | 38.27466 | -0.51048 | 1884 ft | 186 kts | 99° |
| 2026-05-07 12:12 | 38.27184 | -0.49327 | 2161 ft | 211 kts | 99° |
| 2026-05-07 12:12 | 38.26872 | -0.47408 | 2703 ft | 227 kts | 99° |
| 2026-05-07 12:12 | 38.26550 | -0.45422 | 3535 ft | 231 kts | 100° |
| 2026-05-07 12:13 | 38.26116 | -0.43406 | 4149 ft | 249 kts | 115° |
| 2026-05-07 12:13 | 38.24947 | -0.41719 | 4859 ft | 264 kts | 145° |
| 2026-05-07 12:13 | 38.23209 | -0.40928 | 5707 ft | 272 kts | 173° |
| 2026-05-07 12:13 | 38.21329 | -0.41263 | 6620 ft | 279 kts | 200° |
| 2026-05-07 12:14 | 38.19727 | -0.42680 | 7523 ft | 286 kts | 227° |
| 2026-05-07 12:14 | 38.18757 | -0.44895 | 8417 ft | 292 kts | 253° |
| 2026-05-07 12:14 | 38.18557 | -0.47482 | 9268 ft | 298 kts | 273° |
| 2026-05-07 12:14 | 38.19104 | -0.50014 | 10108 ft | 302 kts | 297° |
| 2026-05-07 12:15 | 38.20441 | -0.52172 | 10392 ft | 325 kts | 321° |
| 2026-05-07 12:15 | 38.22340 | -0.53916 | 10719 ft | 344 kts | 325° |
| 2026-05-07 12:15 | 38.24329 | -0.55662 | 11330 ft | 352 kts | 326° |
| 2026-05-07 12:15 | 38.26361 | -0.57434 | 12071 ft | 356 kts | 326° |
| 2026-05-07 12:16 | 38.28421 | -0.59239 | 12809 ft | 361 kts | 325° |
| 2026-05-07 12:16 | 38.30494 | -0.61077 | 13548 ft | 364 kts | 324° |
| 2026-05-07 12:16 | 38.32575 | -0.62944 | 14220 ft | 368 kts | 324° |
| 2026-05-07 12:16 | 38.34667 | -0.64834 | 14911 ft | 370 kts | 323° |
| 2026-05-07 12:17 | 38.36774 | -0.66741 | 15597 ft | 372 kts | 323° |
| 2026-05-07 12:17 | 38.38894 | -0.68661 | 16244 ft | 375 kts | 323° |
| 2026-05-07 12:17 | 38.41029 | -0.70587 | 16923 ft | 378 kts | 322° |
| 2026-05-07 12:17 | 38.43155 | -0.72502 | 17577 ft | 381 kts | 322° |
| 2026-05-07 12:18 | 38.45328 | -0.74459 | 18231 ft | 384 kts | 322° |
| 2026-05-07 12:18 | 38.47519 | -0.76429 | 18807 ft | 387 kts | 322° |
| 2026-05-07 12:18 | 38.49726 | -0.78417 | 19368 ft | 390 kts | 322° |
| 2026-05-07 12:18 | 38.51950 | -0.80427 | 19920 ft | 394 kts | 321° |
| 2026-05-07 12:19 | 38.54195 | -0.82459 | 20474 ft | 397 kts | 321° |
| 2026-05-07 12:19 | 38.56457 | -0.84510 | 21025 ft | 401 kts | 321° |
| 2026-05-07 12:19 | 38.58740 | -0.86583 | 21558 ft | 404 kts | 320° |
| 2026-05-07 12:19 | 38.61042 | -0.88673 | 22081 ft | 408 kts | 320° |
| 2026-05-07 12:20 | 38.63362 | -0.90783 | 22596 ft | 411 kts | 320° |
| 2026-05-07 12:20 | 38.65702 | -0.92915 | 23123 ft | 415 kts | 320° |
| 2026-05-07 12:20 | 38.68060 | -0.95063 | 23611 ft | 418 kts | 319° |
| 2026-05-07 12:20 | 38.70442 | -0.97229 | 24009 ft | 421 kts | 319° |
| 2026-05-07 12:21 | 38.72840 | -0.99410 | 24393 ft | 425 kts | 319° |
| 2026-05-07 12:21 | 38.75261 | -1.01611 | 24770 ft | 428 kts | 319° |
| 2026-05-07 12:21 | 38.77698 | -1.03831 | 25118 ft | 432 kts | 319° |
| 2026-05-07 12:21 | 38.80154 | -1.06073 | 25491 ft | 435 kts | 319° |
| 2026-05-07 12:22 | 38.82628 | -1.08333 | 25845 ft | 438 kts | 319° |
| 2026-05-07 12:22 | 38.85122 | -1.10614 | 26194 ft | 441 kts | 319° |
| 2026-05-07 12:22 | 38.87630 | -1.12909 | 26527 ft | 445 kts | 319° |
| 2026-05-07 12:22 | 38.90155 | -1.15222 | 26893 ft | 448 kts | 319° |
| 2026-05-07 12:23 | 38.92700 | -1.17554 | 27236 ft | 450 kts | 319° |
| 2026-05-07 12:23 | 38.95256 | -1.19899 | 27571 ft | 453 kts | 319° |
| 2026-05-07 12:23 | 38.97828 | -1.22261 | 27890 ft | 456 kts | 319° |
| 2026-05-07 12:23 | 39.00416 | -1.24643 | 28216 ft | 459 kts | 319° |
| 2026-05-07 12:24 | 39.03022 | -1.27046 | 28546 ft | 462 kts | 319° |
| 2026-05-07 12:24 | 39.05639 | -1.29462 | 28849 ft | 465 kts | 319° |
| 2026-05-07 12:24 | 39.08276 | -1.31897 | 29137 ft | 467 kts | 319° |
| 2026-05-07 12:24 | 39.10924 | -1.34344 | 29439 ft | 470 kts | 319° |
| 2026-05-07 12:25 | 39.13588 | -1.36804 | 29726 ft | 473 kts | 319° |
| 2026-05-07 12:25 | 39.16267 | -1.39282 | 29989 ft | 476 kts | 319° |
| 2026-05-07 12:25 | 39.18963 | -1.41777 | 30214 ft | 478 kts | 319° |
| 2026-05-07 12:25 | 39.21669 | -1.44279 | 30460 ft | 480 kts | 319° |
| 2026-05-07 12:26 | 39.24385 | -1.46795 | 30694 ft | 481 kts | 318° |
| 2026-05-07 12:26 | 39.27103 | -1.49319 | 30930 ft | 482 kts | 318° |
| 2026-05-07 12:26 | 39.29824 | -1.51856 | 31163 ft | 483 kts | 318° |
| 2026-05-07 12:26 | 39.32509 | -1.54369 | 31522 ft | 481 kts | 319° |
| 2026-05-07 12:27 | 39.35203 | -1.56898 | 31956 ft | 478 kts | 318° |
| 2026-05-07 12:27 | 39.37884 | -1.59418 | 32280 ft | 476 kts | 318° |
| 2026-05-07 12:27 | 39.40561 | -1.61941 | 32597 ft | 475 kts | 318° |
| 2026-05-07 12:27 | 39.43231 | -1.64459 | 32907 ft | 474 kts | 318° |
| 2026-05-07 12:28 | 39.45893 | -1.66969 | 33226 ft | 473 kts | 318° |
| 2026-05-07 12:28 | 39.48549 | -1.69476 | 33551 ft | 472 kts | 317° |
| 2026-05-07 12:28 | 39.51205 | -1.71981 | 33876 ft | 472 kts | 317° |
| 2026-05-07 12:29 | 39.56473 | -1.76952 | 33983 ft | 464 kts | 317° |
| 2026-05-07 12:29 | 39.61666 | -1.81873 | 33985 ft | 462 kts | 317° |
| 2026-05-07 12:30 | 39.66847 | -1.86807 | 33983 ft | 462 kts | 317° |
| 2026-05-07 12:30 | 39.72028 | -1.91743 | 34010 ft | 461 kts | 318° |
| 2026-05-07 12:31 | 39.77131 | -1.96616 | 33979 ft | 452 kts | 318° |
| 2026-05-07 12:31 | 39.82189 | -2.01439 | 33969 ft | 451 kts | 318° |
| 2026-05-07 12:32 | 39.87246 | -2.06277 | 33965 ft | 451 kts | 318° |
| 2026-05-07 12:32 | 39.92302 | -2.11122 | 33968 ft | 451 kts | 318° |
| 2026-05-07 12:33 | 39.99860 | -2.18371 | 33961 ft | 451 kts | 318° |
| 2026-05-07 12:33 | 40.04911 | -2.23247 | 33959 ft | 452 kts | 318° |
| 2026-05-07 12:34 | 40.09968 | -2.28137 | 33962 ft | 452 kts | 318° |
| 2026-05-07 12:34 | 40.15027 | -2.33020 | 33983 ft | 452 kts | 319° |
| 2026-05-07 12:35 | 40.20070 | -2.37896 | 33979 ft | 451 kts | 319° |
| 2026-05-07 12:35 | 40.25099 | -2.42781 | 33985 ft | 450 kts | 319° |
| 2026-05-07 12:36 | 40.30136 | -2.47637 | 33977 ft | 450 kts | 320° |
| 2026-05-07 12:36 | 40.35147 | -2.52462 | 33972 ft | 450 kts | 320° |
| 2026-05-07 12:37 | 40.39671 | -2.57996 | 33970 ft | 442 kts | 308° |
| 2026-05-07 12:37 | 40.43796 | -2.63976 | 33962 ft | 442 kts | 308° |
| 2026-05-07 12:38 | 40.47936 | -2.69963 | 33973 ft | 443 kts | 308° |
| 2026-05-07 12:38 | 40.52081 | -2.75955 | 33961 ft | 443 kts | 309° |
| 2026-05-07 12:39 | 40.54373 | -2.78672 | 33955 ft | 449 kts | 323° |
| 2026-05-07 12:39 | 40.57176 | -2.80526 | 33951 ft | 456 kts | 339° |
| 2026-05-07 12:39 | 40.63448 | -2.82052 | 33940 ft | 459 kts | 348° |
| 2026-05-07 12:40 | 40.69772 | -2.83317 | 33936 ft | 460 kts | 348° |
| 2026-05-07 12:40 | 40.76109 | -2.84594 | 33935 ft | 460 kts | 348° |
| 2026-05-07 12:41 | 40.82434 | -2.85898 | 33935 ft | 460 kts | 348° |
| 2026-05-07 12:41 | 40.88769 | -2.87218 | 33943 ft | 461 kts | 348° |
| 2026-05-07 12:42 | 40.95102 | -2.88541 | 33939 ft | 461 kts | 348° |
| 2026-05-07 12:42 | 41.01415 | -2.89860 | 33940 ft | 462 kts | 348° |
| 2026-05-07 12:43 | 41.07759 | -2.91177 | 33935 ft | 462 kts | 348° |
| 2026-05-07 12:43 | 41.14109 | -2.92489 | 33931 ft | 462 kts | 348° |
| 2026-05-07 12:44 | 41.20456 | -2.93811 | 33932 ft | 462 kts | 348° |
| 2026-05-07 12:44 | 41.26795 | -2.95141 | 33932 ft | 462 kts | 348° |
| 2026-05-07 12:45 | 41.32111 | -2.96267 | 33930 ft | 462 kts | 348° |
| 2026-05-07 12:45 | 41.38466 | -2.97610 | 33927 ft | 462 kts | 349° |
| 2026-05-07 12:46 | 41.44823 | -2.98941 | 33915 ft | 463 kts | 349° |
| 2026-05-07 12:46 | 41.51192 | -3.00279 | 33915 ft | 463 kts | 349° |
| 2026-05-07 12:47 | 41.57524 | -3.01612 | 33919 ft | 463 kts | 349° |
| 2026-05-07 12:47 | 41.63879 | -3.02956 | 33919 ft | 462 kts | 348° |
| 2026-05-07 12:48 | 41.70232 | -3.04288 | 33916 ft | 463 kts | 351° |
| 2026-05-07 12:48 | 41.76673 | -3.04043 | 33919 ft | 467 kts | 9° |
| 2026-05-07 12:49 | 41.83075 | -3.02551 | 33916 ft | 467 kts | 8° |
| 2026-05-07 12:49 | 41.89473 | -3.01073 | 33924 ft | 467 kts | 8° |
| 2026-05-07 12:50 | 41.95883 | -2.99600 | 33922 ft | 467 kts | 9° |
| 2026-05-07 12:50 | 42.02301 | -2.98125 | 33913 ft | 468 kts | 9° |
| 2026-05-07 12:51 | 42.08717 | -2.96631 | 33914 ft | 468 kts | 9° |
| 2026-05-07 12:51 | 42.15143 | -2.95129 | 33921 ft | 469 kts | 9° |
| 2026-05-07 12:52 | 42.21530 | -2.93637 | 33912 ft | 469 kts | 9° |
| 2026-05-07 12:52 | 42.27951 | -2.92143 | 33922 ft | 468 kts | 9° |
| 2026-05-07 12:53 | 42.34388 | -2.90633 | 33927 ft | 469 kts | 9° |
| 2026-05-07 12:53 | 42.40821 | -2.89125 | 33564 ft | 471 kts | 9° |
| 2026-05-07 12:54 | 42.44060 | -2.88393 | 33281 ft | 471 kts | 6° |
| 2026-05-07 12:54 | 42.47322 | -2.88171 | 33002 ft | 470 kts | 356° |
| 2026-05-07 12:54 | 42.50581 | -2.88341 | 32742 ft | 469 kts | 356° |
| 2026-05-07 12:54 | 42.53843 | -2.88511 | 32475 ft | 468 kts | 356° |
| 2026-05-07 12:55 | 42.57091 | -2.88681 | 32221 ft | 466 kts | 356° |
| 2026-05-07 12:55 | 42.60324 | -2.88849 | 31959 ft | 464 kts | 356° |
| 2026-05-07 12:55 | 42.63539 | -2.89015 | 31534 ft | 460 kts | 356° |
| 2026-05-07 12:55 | 42.66729 | -2.89179 | 30945 ft | 458 kts | 356° |
| 2026-05-07 12:56 | 42.69893 | -2.89343 | 30374 ft | 455 kts | 356° |
| 2026-05-07 12:56 | 42.73048 | -2.89509 | 29773 ft | 452 kts | 356° |
| 2026-05-07 12:56 | 42.76180 | -2.89673 | 29201 ft | 448 kts | 356° |
| 2026-05-07 12:56 | 42.79281 | -2.89836 | 28645 ft | 444 kts | 356° |
| 2026-05-07 12:57 | 42.82353 | -2.89997 | 28096 ft | 440 kts | 356° |
| 2026-05-07 12:57 | 42.85392 | -2.90154 | 27561 ft | 435 kts | 356° |
| 2026-05-07 12:57 | 42.88405 | -2.90311 | 27037 ft | 431 kts | 356° |
| 2026-05-07 12:57 | 42.91393 | -2.90467 | 26526 ft | 428 kts | 356° |
| 2026-05-07 12:58 | 42.94353 | -2.90619 | 26022 ft | 424 kts | 356° |
| 2026-05-07 12:58 | 42.97283 | -2.90771 | 25541 ft | 421 kts | 356° |
| 2026-05-07 12:58 | 43.00202 | -2.90926 | 25056 ft | 417 kts | 356° |
| 2026-05-07 12:58 | 43.03093 | -2.91081 | 24585 ft | 414 kts | 356° |
| 2026-05-07 12:59 | 43.05959 | -2.91232 | 24118 ft | 412 kts | 356° |
| 2026-05-07 12:59 | 43.08815 | -2.91386 | 23628 ft | 409 kts | 356° |
| 2026-05-07 12:59 | 43.11658 | -2.91538 | 23119 ft | 408 kts | 356° |
| 2026-05-07 12:59 | 43.14481 | -2.91686 | 22644 ft | 404 kts | 356° |
| 2026-05-07 13:00 | 43.17272 | -2.91833 | 22173 ft | 400 kts | 356° |
| 2026-05-07 13:00 | 43.20047 | -2.91982 | 21696 ft | 397 kts | 356° |
| 2026-05-07 13:00 | 43.22801 | -2.92128 | 21218 ft | 394 kts | 355° |
| 2026-05-07 13:00 | 43.25449 | -2.92700 | 20742 ft | 388 kts | 340° |
| 2026-05-07 13:01 | 43.27891 | -2.94270 | 20267 ft | 379 kts | 323° |
| 2026-05-07 13:01 | 43.29840 | -2.96626 | 19789 ft | 371 kts | 307° |
| 2026-05-07 13:01 | 43.31207 | -2.99525 | 19327 ft | 364 kts | 291° |
| 2026-05-07 13:01 | 43.31973 | -3.02788 | 18868 ft | 357 kts | 278° |
| 2026-05-07 13:02 | 43.32466 | -3.06117 | 18418 ft | 355 kts | 278° |
| 2026-05-07 13:02 | 43.32957 | -3.09423 | 17926 ft | 353 kts | 278° |
| 2026-05-07 13:02 | 43.33449 | -3.12716 | 17462 ft | 350 kts | 279° |
| 2026-05-07 13:02 | 43.33939 | -3.15979 | 17019 ft | 347 kts | 279° |
| 2026-05-07 13:03 | 43.34422 | -3.19211 | 16585 ft | 344 kts | 279° |
| 2026-05-07 13:03 | 43.34899 | -3.22407 | 16156 ft | 341 kts | 279° |
| 2026-05-07 13:03 | 43.35375 | -3.25589 | 15733 ft | 339 kts | 279° |
| 2026-05-07 13:03 | 43.35845 | -3.28754 | 15310 ft | 337 kts | 279° |
| 2026-05-07 13:04 | 43.36313 | -3.31910 | 14859 ft | 337 kts | 279° |
| 2026-05-07 13:04 | 43.36766 | -3.35058 | 14424 ft | 335 kts | 278° |
| 2026-05-07 13:04 | 43.37198 | -3.38181 | 13991 ft | 332 kts | 278° |
| 2026-05-07 13:04 | 43.37619 | -3.41297 | 13535 ft | 331 kts | 278° |
| 2026-05-07 13:05 | 43.38035 | -3.44397 | 13083 ft | 328 kts | 278° |
| 2026-05-07 13:05 | 43.38448 | -3.47457 | 12646 ft | 325 kts | 277° |
| 2026-05-07 13:05 | 43.38861 | -3.50497 | 12211 ft | 322 kts | 278° |
| 2026-05-07 13:05 | 43.39273 | -3.53526 | 11763 ft | 320 kts | 277° |
| 2026-05-07 13:06 | 43.39681 | -3.56522 | 11331 ft | 318 kts | 277° |
| 2026-05-07 13:06 | 43.40086 | -3.59503 | 10891 ft | 316 kts | 277° |
| 2026-05-07 13:06 | 43.40488 | -3.62466 | 10456 ft | 315 kts | 278° |
| 2026-05-07 13:06 | 43.40888 | -3.65409 | 10116 ft | 310 kts | 277° |
| 2026-05-07 13:07 | 43.41277 | -3.68268 | 9990 ft | 298 kts | 277° |
| 2026-05-07 13:07 | 43.41648 | -3.71019 | 9823 ft | 290 kts | 278° |
| 2026-05-07 13:07 | 43.42011 | -3.73721 | 9553 ft | 286 kts | 278° |
| 2026-05-07 13:07 | 43.42371 | -3.76410 | 9179 ft | 284 kts | 277° |
| 2026-05-07 13:08 | 43.42747 | -3.79067 | 8819 ft | 283 kts | 282° |
| 2026-05-07 13:08 | 43.43668 | -3.81460 | 8468 ft | 287 kts | 306° |
| 2026-05-07 13:08 | 43.45001 | -3.83509 | 8105 ft | 287 kts | 310° |
| 2026-05-07 13:08 | 43.46354 | -3.85512 | 7740 ft | 285 kts | 310° |
| 2026-05-07 13:09 | 43.47688 | -3.87510 | 7396 ft | 283 kts | 310° |
| 2026-05-07 13:09 | 43.49008 | -3.89495 | 7020 ft | 281 kts | 310° |
| 2026-05-07 13:09 | 43.50340 | -3.91479 | 6610 ft | 281 kts | 310° |
| 2026-05-07 13:09 | 43.51646 | -3.93402 | 6428 ft | 271 kts | 311° |
| 2026-05-07 13:10 | 43.52912 | -3.95279 | 6298 ft | 259 kts | 310° |
| 2026-05-07 13:10 | 43.54114 | -3.97056 | 6169 ft | 248 kts | 310° |
| 2026-05-07 13:10 | 43.55281 | -3.98747 | 5999 ft | 239 kts | 311° |
| 2026-05-07 13:10 | 43.56407 | -4.00400 | 5576 ft | 235 kts | 310° |
| 2026-05-07 13:11 | 43.57520 | -4.02040 | 5055 ft | 234 kts | 311° |
| 2026-05-07 13:11 | 43.58577 | -4.03680 | 4588 ft | 231 kts | 302° |
| 2026-05-07 13:11 | 43.59089 | -4.05702 | 4314 ft | 219 kts | 266° |
| 2026-05-07 13:11 | 43.58692 | -4.07617 | 4180 ft | 203 kts | 232° |
| 2026-05-07 13:12 | 43.57789 | -4.09038 | 4009 ft | 194 kts | 222° |
| 2026-05-07 13:12 | 43.56820 | -4.10329 | 3722 ft | 193 kts | 220° |
| 2026-05-07 13:12 | 43.55721 | -4.11298 | 3546 ft | 186 kts | 194° |
| 2026-05-07 13:12 | 43.54426 | -4.11371 | 3495 ft | 190 kts | 163° |
| 2026-05-07 13:13 | 43.53294 | -4.10488 | 3443 ft | 189 kts | 132° |
| 2026-05-07 13:13 | 43.52501 | -4.09027 | 3394 ft | 192 kts | 126° |
| 2026-05-07 13:13 | 43.51729 | -4.07541 | 3342 ft | 190 kts | 126° |
| 2026-05-07 13:13 | 43.50955 | -4.06060 | 3291 ft | 191 kts | 126° |
| 2026-05-07 13:14 | 43.50181 | -4.04579 | 3241 ft | 191 kts | 126° |
| 2026-05-07 13:14 | 43.49399 | -4.03085 | 3076 ft | 191 kts | 126° |
| 2026-05-07 13:14 | 43.48636 | -4.01626 | 2836 ft | 185 kts | 126° |
| 2026-05-07 13:14 | 43.47892 | -4.00208 | 2590 ft | 180 kts | 125° |
| 2026-05-07 13:15 | 43.47197 | -3.98808 | 2376 ft | 174 kts | 115° |
| 2026-05-07 13:15 | 43.46778 | -3.97284 | 2145 ft | 168 kts | 109° |
| 2026-05-07 13:15 | 43.46382 | -3.95791 | 1913 ft | 163 kts | 108° |
| 2026-05-07 13:15 | 43.45996 | -3.94347 | 1704 ft | 159 kts | 108° |
| 2026-05-07 13:16 | 43.45623 | -3.92951 | 1480 ft | 152 kts | 108° |
| 2026-05-07 13:16 | 43.45273 | -3.91647 | 1307 ft | 138 kts | 108° |
| 2026-05-07 13:16 | 43.44952 | -3.90431 | 1110 ft | 134 kts | 108° |
| 2026-05-07 13:16 | 43.44626 | -3.89234 | 914 ft | 132 kts | 106° |
| 2026-05-07 13:17 | 43.44313 | -3.88051 | 778 ft | 134 kts | 107° |
| 2026-05-07 13:17 | 43.44000 | -3.86842 | 620 ft | 133 kts | 108° |
| 2026-05-07 13:17 | 43.43689 | -3.85665 | 447 ft | 129 kts | 107° |
| 2026-05-07 13:17 | 43.43377 | -3.84499 | 257 ft | 132 kts | 107° |
| 2026-05-07 13:18 | 43.43056 | -3.83314 | 47 ft | 131 kts | 108° |
| 2026-05-07 13:18 | 43.42780 | -3.82272 | 19 ft | 93 kts | 110° |
| 2026-05-07 13:18 | 43.42615 | -3.81658 | 23 ft | 44 kts | 110° |
| 2026-05-07 13:18 | 43.42544 | -3.81391 | 23 ft | 25 kts | 110° |
| 2026-05-07 13:19 | 43.42499 | -3.81292 | 22 ft | 8 kts | 171° |
| 2026-05-07 13:19 | 43.42435 | -3.81321 | 20 ft | 13 kts | 201° |
| 2026-05-07 13:19 | 43.42375 | -3.81374 | 19 ft | 9 kts | 254° |
| 2026-05-07 13:19 | 43.42391 | -3.81452 | 20 ft | 11 kts | 290° |
| 2026-05-07 13:20 | 43.42433 | -3.81606 | 21 ft | 23 kts | 291° |
| 2026-05-07 13:20 | 43.42494 | -3.81842 | 19 ft | 23 kts | 290° |
| 2026-05-07 13:20 | 43.42526 | -3.81959 | 19 ft | 9 kts | 290° |
| 2026-05-07 13:20 | 43.42531 | -3.82036 | 20 ft | 8 kts | 239° |
| 2026-05-07 13:21 | 43.42461 | -3.82078 | 19 ft | 14 kts | 200° |
| 2026-05-07 13:21 | 43.42390 | -3.82127 | 19 ft | 9 kts | 244° |
| 2026-05-07 13:21 | 43.42404 | -3.82203 | 20 ft | 8 kts | 292° |
| 2026-05-07 13:21 | 43.42431 | -3.82300 | 19 ft | 14 kts | 289° |
| 2026-05-07 13:22 | 43.42463 | -3.82416 | 21 ft | 10 kts | 291° |
| 2026-05-07 13:22 | 43.42476 | -3.82464 | 20 ft | 3 kts | 286° |
| 2026-05-07 13:22 | 43.42458 | -3.82488 | 19 ft | 6 kts | 196° |
| 2026-05-07 13:22 | 43.42435 | -3.82498 | 19 ft | 0 kts | 200° |